sensor_id;sensor_type;location;lat;lon;timestamp;pressure;altitude;pressure_sealevel;temperature;humidity
56038;BME280;41907;47.848;9.000;2024-03-29T00:01:36;94179.53;;;2.13;100.00
56038;BME280;41907;47.848;9.000;2024-03-29T00:04:01;94180.78;;;2.02;100.00
56038;BME280;41907;47.848;9.000;2024-03-29T00:06:27;94180.22;;;2.05;100.00
56038;BME280;41907;47.848;9.000;2024-03-29T00:08:52;94172.69;;;1.99;100.00
56038;BME280;41907;47.848;9.000;2024-03-29T00:11:18;94171.81;;;2.03;100.00
56038;BME280;41907;47.848;9.000;2024-03-29T00:13:43;94160.91;;;2.10;100.00
56038;BME280;41907;47.848;9.000;2024-03-29T00:16:08;94149.72;;;2.04;100.00
56038;BME280;41907;47.848;9.000;2024-03-29T00:18:34;94146.53;;;2.07;100.00
56038;BME280;41907;47.848;9.000;2024-03-29T00:20:59;94137.84;;;2.07;100.00
56038;BME280;41907;47.848;9.000;2024-03-29T00:23:24;94127.41;;;2.02;100.00
56038;BME280;41907;47.848;9.000;2024-03-29T00:25:50;94119.81;;;2.00;100.00
56038;BME280;41907;47.848;9.000;2024-03-29T00:28:15;94119.03;;;2.13;100.00
56038;BME280;41907;47.848;9.000;2024-03-29T00:30:40;94105.19;;;2.08;100.00
56038;BME280;41907;47.848;9.000;2024-03-29T00:33:06;94090.72;;;1.97;100.00
56038;BME280;41907;47.848;9.000;2024-03-29T00:35:31;94088.75;;;2.02;100.00
56038;BME280;41907;47.848;9.000;2024-03-29T00:37:56;94096.31;;;2.17;100.00
56038;BME280;41907;47.848;9.000;2024-03-29T00:40:22;94075.59;;;2.16;100.00
56038;BME280;41907;47.848;9.000;2024-03-29T00:42:47;94055.09;;;2.27;100.00
56038;BME280;41907;47.848;9.000;2024-03-29T00:45:12;94065.88;;;2.16;100.00
56038;BME280;41907;47.848;9.000;2024-03-29T00:47:38;94067.31;;;2.09;100.00
56038;BME280;41907;47.848;9.000;2024-03-29T00:50:03;94053.59;;;2.12;100.00
56038;BME280;41907;47.848;9.000;2024-03-29T00:52:29;94048.69;;;2.19;100.00
56038;BME280;41907;47.848;9.000;2024-03-29T00:54:54;94046.91;;;2.28;100.00
56038;BME280;41907;47.848;9.000;2024-03-29T00:57:19;94038.59;;;1.99;100.00
56038;BME280;41907;47.848;9.000;2024-03-29T00:59:46;94036.09;;;1.94;100.00
56038;BME280;41907;47.848;9.000;2024-03-29T01:02:11;94041.22;;;2.12;100.00
56038;BME280;41907;47.848;9.000;2024-03-29T01:04:37;94048.53;;;2.02;100.00
56038;BME280;41907;47.848;9.000;2024-03-29T01:07:03;94042.00;;;2.13;100.00
56038;BME280;41907;47.848;9.000;2024-03-29T01:09:29;94034.81;;;2.05;100.00
56038;BME280;41907;47.848;9.000;2024-03-29T01:11:54;94041.22;;;1.99;100.00
56038;BME280;41907;47.848;9.000;2024-03-29T01:14:19;94044.56;;;1.91;100.00
56038;BME280;41907;47.848;9.000;2024-03-29T01:16:45;94035.31;;;1.93;100.00
56038;BME280;41907;47.848;9.000;2024-03-29T01:19:10;94039.22;;;1.96;100.00
56038;BME280;41907;47.848;9.000;2024-03-29T01:21:36;94036.84;;;2.08;100.00
56038;BME280;41907;47.848;9.000;2024-03-29T01:24:02;94047.22;;;2.27;100.00
56038;BME280;41907;47.848;9.000;2024-03-29T01:26:28;94043.06;;;2.12;100.00
56038;BME280;41907;47.848;9.000;2024-03-29T01:28:53;94051.94;;;2.16;100.00
56038;BME280;41907;47.848;9.000;2024-03-29T01:31:18;94060.19;;;2.23;100.00
56038;BME280;41907;47.848;9.000;2024-03-29T01:33:46;94057.84;;;2.21;100.00
56038;BME280;41907;47.848;9.000;2024-03-29T01:36:11;94055.03;;;2.18;100.00
56038;BME280;41907;47.848;9.000;2024-03-29T01:38:36;94049.59;;;2.14;100.00
56038;BME280;41907;47.848;9.000;2024-03-29T01:41:02;94052.22;;;2.14;100.00
56038;BME280;41907;47.848;9.000;2024-03-29T01:43:27;94055.34;;;2.16;100.00
56038;BME280;41907;47.848;9.000;2024-03-29T01:45:54;94060.69;;;2.11;100.00
56038;BME280;41907;47.848;9.000;2024-03-29T01:48:23;94050.19;;;2.11;100.00
56038;BME280;41907;47.848;9.000;2024-03-29T01:50:50;94050.88;;;1.90;100.00
56038;BME280;41907;47.848;9.000;2024-03-29T01:53:18;94036.50;;;1.87;100.00
56038;BME280;41907;47.848;9.000;2024-03-29T01:55:43;94028.00;;;1.90;100.00
56038;BME280;41907;47.848;9.000;2024-03-29T01:58:09;94044.75;;;1.94;100.00
56038;BME280;41907;47.848;9.000;2024-03-29T02:00:41;94047.97;;;2.05;100.00
56038;BME280;41907;47.848;9.000;2024-03-29T02:03:09;94036.66;;;2.04;100.00
56038;BME280;41907;47.848;9.000;2024-03-29T02:05:36;94045.81;;;1.79;100.00
56038;BME280;41907;47.848;9.000;2024-03-29T02:08:04;94062.19;;;1.90;100.00
56038;BME280;41907;47.848;9.000;2024-03-29T02:10:29;94049.03;;;2.04;100.00
56038;BME280;41907;47.848;9.000;2024-03-29T02:12:54;94055.25;;;2.08;100.00
56038;BME280;41907;47.848;9.000;2024-03-29T02:15:20;94063.53;;;2.01;100.00
56038;BME280;41907;47.848;9.000;2024-03-29T02:17:45;94022.97;;;1.66;100.00
56038;BME280;41907;47.848;9.000;2024-03-29T02:20:11;94010.44;;;1.49;100.00
56038;BME280;41907;47.848;9.000;2024-03-29T02:22:39;94049.34;;;1.61;100.00
56038;BME280;41907;47.848;9.000;2024-03-29T02:25:07;94058.38;;;1.82;100.00
56038;BME280;41907;47.848;9.000;2024-03-29T02:27:33;94046.13;;;1.92;100.00
56038;BME280;41907;47.848;9.000;2024-03-29T02:29:58;94018.19;;;1.82;100.00
56038;BME280;41907;47.848;9.000;2024-03-29T02:32:23;93978.91;;;1.49;100.00
56038;BME280;41907;47.848;9.000;2024-03-29T02:34:49;94014.09;;;1.62;100.00
56038;BME280;41907;47.848;9.000;2024-03-29T02:37:14;94040.69;;;1.74;100.00
56038;BME280;41907;47.848;9.000;2024-03-29T02:39:39;94013.78;;;1.91;100.00
56038;BME280;41907;47.848;9.000;2024-03-29T02:42:05;94000.47;;;1.88;100.00
56038;BME280;41907;47.848;9.000;2024-03-29T02:44:30;93982.00;;;1.79;100.00
56038;BME280;41907;47.848;9.000;2024-03-29T02:46:56;93982.53;;;1.90;100.00
56038;BME280;41907;47.848;9.000;2024-03-29T02:49:21;94002.00;;;2.02;100.00
56038;BME280;41907;47.848;9.000;2024-03-29T02:51:46;94036.25;;;2.11;100.00
56038;BME280;41907;47.848;9.000;2024-03-29T02:54:12;94019.19;;;2.08;100.00
56038;BME280;41907;47.848;9.000;2024-03-29T02:56:37;94009.59;;;1.90;100.00
56038;BME280;41907;47.848;9.000;2024-03-29T02:59:02;94028.28;;;2.02;100.00
56038;BME280;41907;47.848;9.000;2024-03-29T03:01:28;94034.91;;;2.00;100.00
56038;BME280;41907;47.848;9.000;2024-03-29T03:03:53;94045.03;;;2.06;100.00
56038;BME280;41907;47.848;9.000;2024-03-29T03:06:18;94046.59;;;1.94;100.00
56038;BME280;41907;47.848;9.000;2024-03-29T03:08:44;94042.44;;;1.79;100.00
56038;BME280;41907;47.848;9.000;2024-03-29T03:11:27;94039.22;;;1.96;100.00
56038;BME280;41907;47.848;9.000;2024-03-29T03:13:53;94035.75;;;2.09;100.00
56038;BME280;41907;47.848;9.000;2024-03-29T03:16:18;94012.00;;;2.00;100.00
56038;BME280;41907;47.848;9.000;2024-03-29T03:18:43;94020.09;;;2.04;100.00
56038;BME280;41907;47.848;9.000;2024-03-29T03:21:08;94007.06;;;1.99;100.00
56038;BME280;41907;47.848;9.000;2024-03-29T03:23:34;94020.31;;;1.94;100.00
56038;BME280;41907;47.848;9.000;2024-03-29T03:26:01;94014.66;;;2.00;100.00
56038;BME280;41907;47.848;9.000;2024-03-29T03:28:29;94013.22;;;1.94;100.00
56038;BME280;41907;47.848;9.000;2024-03-29T03:30:54;94012.81;;;2.01;100.00
56038;BME280;41907;47.848;9.000;2024-03-29T03:33:20;94012.72;;;2.06;100.00
56038;BME280;41907;47.848;9.000;2024-03-29T03:35:46;94021.53;;;2.10;100.00
56038;BME280;41907;47.848;9.000;2024-03-29T03:38:12;94010.94;;;2.15;100.00
56038;BME280;41907;47.848;9.000;2024-03-29T03:40:38;94012.84;;;2.23;100.00
56038;BME280;41907;47.848;9.000;2024-03-29T03:43:04;94014.97;;;2.35;100.00
56038;BME280;41907;47.848;9.000;2024-03-29T03:45:35;94021.25;;;2.47;100.00
56038;BME280;41907;47.848;9.000;2024-03-29T03:48:02;94014.56;;;2.64;100.00
56038;BME280;41907;47.848;9.000;2024-03-29T03:50:28;94019.88;;;2.72;100.00
56038;BME280;41907;47.848;9.000;2024-03-29T03:52:53;94037.06;;;2.70;100.00
56038;BME280;41907;47.848;9.000;2024-03-29T03:55:19;94042.09;;;2.80;100.00
56038;BME280;41907;47.848;9.000;2024-03-29T03:57:44;94040.88;;;2.86;100.00
56038;BME280;41907;47.848;9.000;2024-03-29T04:00:10;94035.38;;;2.96;100.00
56038;BME280;41907;47.848;9.000;2024-03-29T04:02:35;94038.34;;;3.03;100.00
56038;BME280;41907;47.848;9.000;2024-03-29T04:05:00;94049.84;;;3.07;100.00
56038;BME280;41907;47.848;9.000;2024-03-29T04:07:26;94044.44;;;3.12;100.00
56038;BME280;41907;47.848;9.000;2024-03-29T04:09:52;94047.44;;;3.19;100.00
56038;BME280;41907;47.848;9.000;2024-03-29T04:12:17;94033.44;;;3.10;100.00
56038;BME280;41907;47.848;9.000;2024-03-29T04:14:43;94034.34;;;3.06;100.00
56038;BME280;41907;47.848;9.000;2024-03-29T04:17:08;94041.81;;;3.12;100.00
56038;BME280;41907;47.848;9.000;2024-03-29T04:19:34;94044.50;;;3.21;100.00
56038;BME280;41907;47.848;9.000;2024-03-29T04:21:59;94049.38;;;3.36;100.00
56038;BME280;41907;47.848;9.000;2024-03-29T04:24:24;94049.38;;;3.36;100.00
56038;BME280;41907;47.848;9.000;2024-03-29T04:26:49;94054.22;;;3.43;100.00
56038;BME280;41907;47.848;9.000;2024-03-29T04:29:16;94042.78;;;3.47;100.00
56038;BME280;41907;47.848;9.000;2024-03-29T04:31:41;94028.34;;;3.45;100.00
56038;BME280;41907;47.848;9.000;2024-03-29T04:34:06;94035.16;;;3.46;100.00
56038;BME280;41907;47.848;9.000;2024-03-29T04:36:32;94027.56;;;3.44;100.00
56038;BME280;41907;47.848;9.000;2024-03-29T04:38:57;94027.22;;;3.37;100.00
56038;BME280;41907;47.848;9.000;2024-03-29T04:41:22;94020.72;;;3.43;100.00
56038;BME280;41907;47.848;9.000;2024-03-29T04:43:50;94016.03;;;3.31;100.00
56038;BME280;41907;47.848;9.000;2024-03-29T04:46:16;94046.41;;;3.29;100.00
56038;BME280;41907;47.848;9.000;2024-03-29T04:48:42;94044.88;;;3.36;100.00
56038;BME280;41907;47.848;9.000;2024-03-29T04:51:08;94032.06;;;3.44;100.00
56038;BME280;41907;47.848;9.000;2024-03-29T04:53:38;94049.09;;;3.38;100.00
56038;BME280;41907;47.848;9.000;2024-03-29T04:56:04;94051.91;;;3.50;100.00
56038;BME280;41907;47.848;9.000;2024-03-29T04:58:30;94058.31;;;3.57;100.00
56038;BME280;41907;47.848;9.000;2024-03-29T05:00:56;94029.59;;;3.47;100.00
56038;BME280;41907;47.848;9.000;2024-03-29T05:03:22;94038.91;;;3.53;100.00
56038;BME280;41907;47.848;9.000;2024-03-29T05:05:50;94057.56;;;3.65;100.00
56038;BME280;41907;47.848;9.000;2024-03-29T05:08:16;94076.38;;;3.72;100.00
56038;BME280;41907;47.848;9.000;2024-03-29T05:10:41;94005.63;;;3.66;100.00
56038;BME280;41907;47.848;9.000;2024-03-29T05:13:07;94050.25;;;3.62;100.00
56038;BME280;41907;47.848;9.000;2024-03-29T05:15:33;94056.84;;;3.82;100.00
56038;BME280;41907;47.848;9.000;2024-03-29T05:17:59;94019.19;;;3.90;100.00
56038;BME280;41907;47.848;9.000;2024-03-29T05:20:24;94065.06;;;3.81;100.00
56038;BME280;41907;47.848;9.000;2024-03-29T05:22:49;94040.88;;;3.87;100.00
56038;BME280;41907;47.848;9.000;2024-03-29T05:25:15;94074.25;;;3.92;100.00
56038;BME280;41907;47.848;9.000;2024-03-29T05:27:40;94163.53;;;4.07;100.00
56038;BME280;41907;47.848;9.000;2024-03-29T05:30:06;94209.81;;;4.13;100.00
56038;BME280;41907;47.848;9.000;2024-03-29T05:32:32;94164.81;;;4.18;100.00
56038;BME280;41907;47.848;9.000;2024-03-29T05:34:57;94172.47;;;4.37;100.00
56038;BME280;41907;47.848;9.000;2024-03-29T05:37:23;94185.41;;;4.56;100.00
56038;BME280;41907;47.848;9.000;2024-03-29T05:39:53;94171.91;;;4.48;100.00
56038;BME280;41907;47.848;9.000;2024-03-29T05:42:29;94178.94;;;4.70;100.00
56038;BME280;41907;47.848;9.000;2024-03-29T05:44:55;94156.25;;;4.61;100.00
56038;BME280;41907;47.848;9.000;2024-03-29T05:47:20;94145.69;;;4.61;100.00
56038;BME280;41907;47.848;9.000;2024-03-29T05:49:47;94105.59;;;4.41;100.00
56038;BME280;41907;47.848;9.000;2024-03-29T05:52:12;94091.13;;;4.39;100.00
56038;BME280;41907;47.848;9.000;2024-03-29T05:54:41;94126.09;;;4.53;100.00
56038;BME280;41907;47.848;9.000;2024-03-29T05:57:06;94105.44;;;4.72;100.00
56038;BME280;41907;47.848;9.000;2024-03-29T05:59:33;94079.69;;;4.86;100.00
56038;BME280;41907;47.848;9.000;2024-03-29T06:01:58;94074.81;;;5.32;99.20
56038;BME280;41907;47.848;9.000;2024-03-29T06:04:24;94026.09;;;5.41;97.49
56038;BME280;41907;47.848;9.000;2024-03-29T06:06:57;94011.38;;;5.70;96.94
56038;BME280;41907;47.848;9.000;2024-03-29T06:09:24;94007.63;;;6.09;95.13
56038;BME280;41907;47.848;9.000;2024-03-29T06:11:49;94009.50;;;7.24;91.30
56038;BME280;41907;47.848;9.000;2024-03-29T06:14:14;94005.69;;;9.70;72.02
56038;BME280;41907;47.848;9.000;2024-03-29T06:16:58;94048.41;;;8.90;74.68
56038;BME280;41907;47.848;9.000;2024-03-29T06:19:42;94064.00;;;8.03;78.15
56038;BME280;41907;47.848;9.000;2024-03-29T06:22:07;94103.66;;;7.75;82.12
56038;BME280;41907;47.848;9.000;2024-03-29T06:24:34;94103.72;;;8.00;82.65
56038;BME280;41907;47.848;9.000;2024-03-29T06:27:00;94129.97;;;8.74;79.59
56038;BME280;41907;47.848;9.000;2024-03-29T06:29:25;94116.66;;;9.26;76.10
56038;BME280;41907;47.848;9.000;2024-03-29T06:31:51;94111.34;;;10.14;72.43
56038;BME280;41907;47.848;9.000;2024-03-29T06:34:16;94110.25;;;11.16;61.97
56038;BME280;41907;47.848;9.000;2024-03-29T06:36:41;94099.16;;;11.14;62.32
56038;BME280;41907;47.848;9.000;2024-03-29T06:39:07;94072.19;;;11.00;61.50
56038;BME280;41907;47.848;9.000;2024-03-29T06:41:33;94071.22;;;10.22;63.04
56038;BME280;41907;47.848;9.000;2024-03-29T06:43:58;94071.66;;;9.49;66.04
56038;BME280;41907;47.848;9.000;2024-03-29T06:46:24;94070.81;;;10.36;64.03
56038;BME280;41907;47.848;9.000;2024-03-29T06:48:49;94072.47;;;11.33;59.89
56038;BME280;41907;47.848;9.000;2024-03-29T06:51:15;94081.63;;;11.74;59.00
56038;BME280;41907;47.848;9.000;2024-03-29T06:53:40;94092.09;;;12.25;56.21
56038;BME280;41907;47.848;9.000;2024-03-29T06:56:06;94081.31;;;11.37;58.74
56038;BME280;41907;47.848;9.000;2024-03-29T06:58:32;94071.72;;;10.78;61.18
56038;BME280;41907;47.848;9.000;2024-03-29T07:00:58;94074.50;;;10.66;60.65
56038;BME280;41907;47.848;9.000;2024-03-29T07:03:24;94084.53;;;10.06;63.32
56038;BME280;41907;47.848;9.000;2024-03-29T07:05:49;94075.91;;;9.82;66.18
56038;BME280;41907;47.848;9.000;2024-03-29T07:08:15;94073.88;;;10.06;66.03
56038;BME280;41907;47.848;9.000;2024-03-29T07:10:41;94067.69;;;10.02;66.42
56038;BME280;41907;47.848;9.000;2024-03-29T07:13:07;94057.53;;;9.92;68.40
56038;BME280;41907;47.848;9.000;2024-03-29T07:15:33;94062.25;;;9.67;69.93
56038;BME280;41907;47.848;9.000;2024-03-29T07:18:00;94073.06;;;9.75;70.35
56038;BME280;41907;47.848;9.000;2024-03-29T07:20:26;94072.94;;;9.40;71.96
56038;BME280;41907;47.848;9.000;2024-03-29T07:22:52;94086.47;;;9.34;72.47
56038;BME280;41907;47.848;9.000;2024-03-29T07:25:17;94095.59;;;9.33;73.49
56038;BME280;41907;47.848;9.000;2024-03-29T07:27:42;94086.38;;;9.75;74.06
56038;BME280;41907;47.848;9.000;2024-03-29T07:30:09;94083.94;;;10.44;68.30
56038;BME280;41907;47.848;9.000;2024-03-29T07:32:36;94078.19;;;12.16;62.61
56038;BME280;41907;47.848;9.000;2024-03-29T07:35:02;94055.97;;;13.88;53.95
56038;BME280;41907;47.848;9.000;2024-03-29T07:37:28;94032.19;;;15.86;47.77
56038;BME280;41907;47.848;9.000;2024-03-29T07:39:53;94018.56;;;17.45;44.42
56038;BME280;41907;47.848;9.000;2024-03-29T07:42:18;94029.66;;;19.10;40.84
56038;BME280;41907;47.848;9.000;2024-03-29T07:44:44;94033.31;;;18.96;39.43
56038;BME280;41907;47.848;9.000;2024-03-29T07:47:09;94040.63;;;20.21;37.93
56038;BME280;41907;47.848;9.000;2024-03-29T07:49:35;94025.47;;;21.60;34.94
56038;BME280;41907;47.848;9.000;2024-03-29T07:52:00;94033.69;;;21.92;34.24
56038;BME280;41907;47.848;9.000;2024-03-29T07:54:30;94038.13;;;22.71;33.46
56038;BME280;41907;47.848;9.000;2024-03-29T07:56:56;94046.69;;;22.85;33.47
56038;BME280;41907;47.848;9.000;2024-03-29T07:59:21;94050.41;;;24.20;30.26
56038;BME280;41907;47.848;9.000;2024-03-29T08:01:46;94065.31;;;22.87;31.00
56038;BME280;41907;47.848;9.000;2024-03-29T08:04:12;94056.34;;;22.38;31.41
56038;BME280;41907;47.848;9.000;2024-03-29T08:06:37;94061.66;;;21.10;33.44
56038;BME280;41907;47.848;9.000;2024-03-29T08:09:03;94056.66;;;19.81;36.41
56038;BME280;41907;47.848;9.000;2024-03-29T08:11:28;94057.13;;;21.66;34.79
56038;BME280;41907;47.848;9.000;2024-03-29T08:13:54;94069.44;;;23.53;33.84
56038;BME280;41907;47.848;9.000;2024-03-29T08:16:19;94061.66;;;24.47;30.91
56038;BME280;41907;47.848;9.000;2024-03-29T08:18:47;94059.66;;;23.97;29.34
56038;BME280;41907;47.848;9.000;2024-03-29T08:21:13;94054.41;;;23.77;30.43
56038;BME280;41907;47.848;9.000;2024-03-29T08:23:40;94046.19;;;24.31;31.51
56038;BME280;41907;47.848;9.000;2024-03-29T08:26:05;94058.03;;;24.88;31.50
56038;BME280;41907;47.848;9.000;2024-03-29T08:28:30;94070.78;;;25.38;30.41
56038;BME280;41907;47.848;9.000;2024-03-29T08:31:03;94081.38;;;25.36;31.49
56038;BME280;41907;47.848;9.000;2024-03-29T08:33:29;94082.66;;;24.84;30.40
56038;BME280;41907;47.848;9.000;2024-03-29T08:35:55;94085.31;;;24.25;31.67
56038;BME280;41907;47.848;9.000;2024-03-29T08:38:21;94089.03;;;23.31;31.73
56038;BME280;41907;47.848;9.000;2024-03-29T08:40:46;94094.19;;;21.53;34.89
56038;BME280;41907;47.848;9.000;2024-03-29T08:43:16;94090.75;;;21.06;36.36
56038;BME280;41907;47.848;9.000;2024-03-29T08:45:43;94085.25;;;21.92;35.89
56038;BME280;41907;47.848;9.000;2024-03-29T08:48:09;94087.91;;;22.15;36.44
56038;BME280;41907;47.848;9.000;2024-03-29T08:50:35;94076.59;;;22.85;35.04
56038;BME280;41907;47.848;9.000;2024-03-29T08:53:01;94079.41;;;23.43;33.71
56038;BME280;41907;47.848;9.000;2024-03-29T08:55:27;94078.47;;;23.50;32.66
56038;BME280;41907;47.848;9.000;2024-03-29T08:57:52;94080.50;;;23.46;32.91
56038;BME280;41907;47.848;9.000;2024-03-29T09:00:18;94069.28;;;24.39;30.87
56038;BME280;41907;47.848;9.000;2024-03-29T09:02:46;94069.19;;;24.30;30.88
56038;BME280;41907;47.848;9.000;2024-03-29T09:05:11;94068.22;;;24.24;30.24
56038;BME280;41907;47.848;9.000;2024-03-29T09:07:36;94055.47;;;24.34;32.32
56038;BME280;41907;47.848;9.000;2024-03-29T09:10:04;94052.19;;;24.52;30.48
56038;BME280;41907;47.848;9.000;2024-03-29T09:12:29;94048.06;;;23.67;27.48
56038;BME280;41907;47.848;9.000;2024-03-29T09:14:54;94062.50;;;24.82;26.25
56038;BME280;41907;47.848;9.000;2024-03-29T09:17:20;94063.53;;;24.50;27.24
56038;BME280;41907;47.848;9.000;2024-03-29T09:19:49;94059.78;;;23.35;28.47
56038;BME280;41907;47.848;9.000;2024-03-29T09:22:15;94064.25;;;22.16;27.68
56038;BME280;41907;47.848;9.000;2024-03-29T09:24:40;94070.53;;;21.73;30.22
56038;BME280;41907;47.848;9.000;2024-03-29T09:27:06;94065.72;;;21.81;29.61
56038;BME280;41907;47.848;9.000;2024-03-29T09:29:32;94046.78;;;22.49;28.65
56038;BME280;41907;47.848;9.000;2024-03-29T09:31:57;94049.75;;;22.55;28.39
56038;BME280;41907;47.848;9.000;2024-03-29T09:34:22;94046.19;;;22.42;30.61
56038;BME280;41907;47.848;9.000;2024-03-29T09:36:48;94048.66;;;23.01;30.51
56038;BME280;41907;47.848;9.000;2024-03-29T09:39:13;94046.09;;;22.94;29.32
56038;BME280;41907;47.848;9.000;2024-03-29T09:41:40;94048.81;;;24.47;26.74
56038;BME280;41907;47.848;9.000;2024-03-29T09:44:10;94051.72;;;24.66;26.82
56038;BME280;41907;47.848;9.000;2024-03-29T09:46:36;94049.03;;;25.47;26.24
56038;BME280;41907;47.848;9.000;2024-03-29T09:49:06;94042.34;;;25.48;26.72
56038;BME280;41907;47.848;9.000;2024-03-29T09:51:32;94047.00;;;25.82;26.46
56038;BME280;41907;47.848;9.000;2024-03-29T09:53:59;94039.09;;;26.37;25.18
56038;BME280;41907;47.848;9.000;2024-03-29T09:56:27;94039.25;;;24.90;24.87
56038;BME280;41907;47.848;9.000;2024-03-29T09:58:53;94042.97;;;24.07;26.32
56038;BME280;41907;47.848;9.000;2024-03-29T10:01:18;94032.25;;;22.72;27.53
56038;BME280;41907;47.848;9.000;2024-03-29T10:03:48;94030.97;;;23.09;28.16
56038;BME280;41907;47.848;9.000;2024-03-29T10:06:15;94023.94;;;23.53;28.08
56038;BME280;41907;47.848;9.000;2024-03-29T10:08:42;94009.75;;;23.46;27.03
56038;BME280;41907;47.848;9.000;2024-03-29T10:11:08;93995.47;;;22.68;29.23
56038;BME280;41907;47.848;9.000;2024-03-29T10:13:33;93997.63;;;23.34;28.54
56038;BME280;41907;47.848;9.000;2024-03-29T10:15:59;94003.91;;;22.73;29.27
56038;BME280;41907;47.848;9.000;2024-03-29T10:18:28;93980.41;;;22.34;30.41
56038;BME280;41907;47.848;9.000;2024-03-29T10:23:27;93975.31;;;22.36;31.15
56038;BME280;41907;47.848;9.000;2024-03-29T10:25:53;93975.88;;;22.27;31.93
56038;BME280;41907;47.848;9.000;2024-03-29T10:28:19;93977.81;;;22.92;31.78
56038;BME280;41907;47.848;9.000;2024-03-29T10:30:44;93979.59;;;23.40;30.85
56038;BME280;41907;47.848;9.000;2024-03-29T10:33:09;93980.31;;;24.58;29.99
56038;BME280;41907;47.848;9.000;2024-03-29T10:35:35;93971.00;;;24.81;30.22
56038;BME280;41907;47.848;9.000;2024-03-29T10:38:04;93974.28;;;24.76;29.14
56038;BME280;41907;47.848;9.000;2024-03-29T10:40:30;93957.66;;;24.48;28.72
56038;BME280;41907;47.848;9.000;2024-03-29T10:42:56;93950.06;;;23.80;27.67
56038;BME280;41907;47.848;9.000;2024-03-29T10:45:22;93956.91;;;23.59;28.45
56038;BME280;41907;47.848;9.000;2024-03-29T10:47:49;93959.06;;;22.49;30.81
56038;BME280;41907;47.848;9.000;2024-03-29T10:50:15;93971.25;;;21.20;32.14
56038;BME280;41907;47.848;9.000;2024-03-29T10:52:42;93998.59;;;20.63;32.33
56038;BME280;41907;47.848;9.000;2024-03-29T10:55:09;94006.03;;;20.32;32.16
56038;BME280;41907;47.848;9.000;2024-03-29T10:57:41;94015.06;;;20.49;31.02
56038;BME280;41907;47.848;9.000;2024-03-29T11:00:15;94014.84;;;19.86;31.01
56038;BME280;41907;47.848;9.000;2024-03-29T11:02:51;94015.66;;;19.83;32.29
56038;BME280;41907;47.848;9.000;2024-03-29T11:05:21;94000.81;;;19.67;32.42
56038;BME280;41907;47.848;9.000;2024-03-29T11:07:49;93999.69;;;19.65;32.35
56038;BME280;41907;47.848;9.000;2024-03-29T11:10:36;93996.09;;;19.41;32.45
56038;BME280;41907;47.848;9.000;2024-03-29T11:15:49;93992.28;;;19.69;35.80
56038;BME280;41907;47.848;9.000;2024-03-29T11:18:15;94009.28;;;19.69;35.00
56038;BME280;41907;47.848;9.000;2024-03-29T11:20:45;93998.63;;;19.55;33.33
56038;BME280;41907;47.848;9.000;2024-03-29T11:23:16;93992.63;;;19.41;33.32
56038;BME280;41907;47.848;9.000;2024-03-29T11:25:44;93986.72;;;19.53;34.22
56038;BME280;41907;47.848;9.000;2024-03-29T11:28:15;93983.03;;;19.66;33.81
56038;BME280;41907;47.848;9.000;2024-03-29T11:30:46;93943.34;;;19.60;32.98
56038;BME280;41907;47.848;9.000;2024-03-29T11:33:26;93933.25;;;19.33;35.62
56038;BME280;41907;47.848;9.000;2024-03-29T11:35:51;93941.97;;;19.45;37.00
56038;BME280;41907;47.848;9.000;2024-03-29T11:38:17;93957.06;;;19.73;36.81
56038;BME280;41907;47.848;9.000;2024-03-29T11:40:53;93953.91;;;19.47;36.95
56038;BME280;41907;47.848;9.000;2024-03-29T11:43:19;93948.59;;;19.40;36.94
56038;BME280;41907;47.848;9.000;2024-03-29T11:45:44;93945.66;;;19.31;36.80
56038;BME280;41907;47.848;9.000;2024-03-29T11:48:15;93939.78;;;19.36;35.51
56038;BME280;41907;47.848;9.000;2024-03-29T11:50:40;93938.28;;;19.89;35.84
56038;BME280;41907;47.848;9.000;2024-03-29T11:53:06;93937.28;;;20.02;32.83
56038;BME280;41907;47.848;9.000;2024-03-29T11:55:31;93937.78;;;20.44;31.99
56038;BME280;41907;47.848;9.000;2024-03-29T11:57:59;93933.47;;;20.90;32.67
56038;BME280;41907;47.848;9.000;2024-03-29T12:00:24;93920.09;;;21.22;31.22
56038;BME280;41907;47.848;9.000;2024-03-29T12:02:55;93913.38;;;21.07;31.37
56038;BME280;41907;47.848;9.000;2024-03-29T12:05:22;93912.72;;;21.59;31.84
56038;BME280;41907;47.848;9.000;2024-03-29T12:07:48;93923.47;;;21.62;31.16
56038;BME280;41907;47.848;9.000;2024-03-29T12:10:13;93923.50;;;21.95;31.18
56038;BME280;41907;47.848;9.000;2024-03-29T12:12:39;93928.59;;;21.92;32.12
56038;BME280;41907;47.848;9.000;2024-03-29T12:15:07;93928.88;;;22.31;30.42
56038;BME280;41907;47.848;9.000;2024-03-29T12:17:32;93932.63;;;22.65;30.62
56038;BME280;41907;47.848;9.000;2024-03-29T12:19:58;93938.38;;;22.84;30.60
56038;BME280;41907;47.848;9.000;2024-03-29T12:22:31;93916.94;;;22.57;31.82
56038;BME280;41907;47.848;9.000;2024-03-29T12:24:57;93924.59;;;22.62;31.38
56038;BME280;41907;47.848;9.000;2024-03-29T12:27:22;93925.41;;;23.04;31.71
56038;BME280;41907;47.848;9.000;2024-03-29T12:29:50;93924.47;;;23.11;32.94
56038;BME280;41907;47.848;9.000;2024-03-29T12:32:19;93927.28;;;23.07;32.21
56038;BME280;41907;47.848;9.000;2024-03-29T12:34:44;93925.34;;;22.79;31.77
56038;BME280;41907;47.848;9.000;2024-03-29T12:37:10;93928.41;;;22.93;33.21
56038;BME280;41907;47.848;9.000;2024-03-29T12:39:36;93928.72;;;22.67;31.95
56038;BME280;41907;47.848;9.000;2024-03-29T12:42:04;93925.72;;;22.48;34.22
56038;BME280;41907;47.848;9.000;2024-03-29T12:44:30;93928.25;;;23.00;33.43
56038;BME280;41907;47.848;9.000;2024-03-29T12:46:57;93931.72;;;23.43;32.91
56038;BME280;41907;47.848;9.000;2024-03-29T12:49:24;93941.88;;;23.55;32.14
56038;BME280;41907;47.848;9.000;2024-03-29T12:51:49;93945.88;;;23.50;30.80
56038;BME280;41907;47.848;9.000;2024-03-29T12:54:15;93944.06;;;23.60;31.81
56038;BME280;41907;47.848;9.000;2024-03-29T12:56:40;93937.41;;;23.61;32.32
56038;BME280;41907;47.848;9.000;2024-03-29T12:59:07;93928.72;;;23.79;31.48
56038;BME280;41907;47.848;9.000;2024-03-29T13:01:32;93919.81;;;23.65;31.80